createdAt,value
2023-05-11T00:00:44.290Z,3.33
2023-05-11T00:03:12.475Z,4.37
2023-05-11T00:05:42.132Z,3.67
2023-05-11T00:08:09.873Z,4.20
2023-05-11T00:10:37.872Z,3.67
2023-05-11T00:13:05.726Z,4.63
2023-05-11T00:15:33.406Z,3.67
2023-05-11T00:18:01.162Z,4.17
2023-05-11T00:20:28.926Z,4.50
2023-05-11T00:22:57.991Z,4.47
2023-05-11T00:25:25.707Z,4.60
2023-05-11T00:27:53.590Z,4.83
2023-05-11T00:30:21.446Z,4.20
2023-05-11T00:32:49.349Z,4.30
2023-05-11T00:35:17.215Z,4.77
2023-05-11T00:37:45.217Z,4.47
2023-05-11T00:40:14.448Z,5.00
2023-05-11T00:42:42.214Z,5.03
2023-05-11T00:45:11.347Z,4.87
2023-05-11T00:47:39.285Z,4.70
2023-05-11T00:50:08.481Z,4.43
2023-05-11T00:52:36.317Z,5.07
2023-05-11T00:55:04.116Z,4.90
2023-05-11T00:57:33.312Z,4.63
2023-05-11T01:00:04.051Z,4.37
2023-05-11T01:02:32.041Z,4.27
2023-05-11T01:05:00.724Z,4.47
2023-05-11T01:07:35.756Z,5.13
2023-05-11T01:10:14.997Z,4.80
2023-05-11T01:12:54.218Z,4.60
2023-05-11T01:15:29.093Z,4.07
2023-05-11T01:18:02.433Z,3.87
2023-05-11T01:20:31.673Z,3.23
2023-05-11T01:23:39.495Z,3.70
2023-05-11T01:26:18.377Z,3.70
2023-05-11T01:29:11.689Z,4.60
2023-05-11T01:31:43.544Z,3.97
2023-05-11T01:34:15.644Z,3.70
2023-05-11T01:36:49.275Z,4.23
2023-05-11T01:39:21.527Z,3.80
2023-05-11T01:41:54.536Z,3.80
2023-05-11T01:44:26.643Z,4.10
2023-05-11T01:46:57.132Z,4.80
2023-05-11T01:49:25.512Z,4.50
2023-05-11T01:51:54.791Z,5.07
2023-05-11T01:54:24.742Z,4.73
2023-05-11T01:56:53.990Z,4.67
2023-05-11T01:59:22.389Z,5.00
2023-05-11T02:01:50.149Z,5.17
2023-05-11T02:04:21.189Z,4.50
2023-05-11T02:06:50.751Z,4.53
2023-05-11T02:09:21.068Z,4.33
2023-05-11T02:11:50.151Z,4.80
2023-05-11T02:14:19.842Z,4.50
2023-05-11T02:16:48.986Z,4.40
2023-05-11T02:19:17.871Z,4.63
2023-05-11T02:21:49.176Z,3.73
2023-05-11T02:24:17.558Z,4.27
2023-05-11T02:26:46.173Z,4.87
2023-05-11T02:29:14.112Z,4.23
2023-05-11T02:31:45.199Z,4.33
2023-05-11T02:34:22.726Z,4.30
2023-05-11T02:36:54.339Z,4.63
2023-05-11T02:39:23.144Z,5.00
2023-05-11T02:41:56.101Z,3.77
2023-05-11T02:44:27.683Z,3.57
2023-05-11T02:46:57.916Z,3.90
2023-05-11T02:49:29.639Z,4.67
2023-05-11T02:52:01.473Z,4.50
2023-05-11T02:54:30.092Z,3.83
2023-05-11T02:56:58.248Z,5.00
2023-05-11T02:59:26.236Z,4.00
2023-05-11T03:01:54.704Z,4.47
2023-05-11T03:04:22.634Z,3.63
2023-05-11T03:06:50.669Z,3.50
2023-05-11T03:09:20.187Z,4.07
2023-05-11T03:11:48.292Z,3.40
2023-05-11T03:14:16.164Z,3.63
2023-05-11T03:16:44.892Z,3.23
2023-05-11T03:19:13.934Z,3.73
2023-05-11T03:21:41.959Z,3.67
2023-05-11T03:24:11.169Z,4.23
2023-05-11T03:26:41.998Z,3.87
2023-05-11T03:29:10.950Z,3.83
2023-05-11T03:31:38.926Z,3.67
2023-05-11T03:34:06.749Z,2.93
2023-05-11T03:36:34.880Z,4.37
2023-05-11T03:39:04.190Z,4.03
2023-05-11T03:41:34.893Z,4.47
2023-05-11T03:44:07.401Z,4.77
2023-05-11T03:46:39.974Z,3.93
2023-05-11T03:49:10.779Z,4.30
2023-05-11T03:51:41.108Z,4.30
2023-05-11T03:54:09.259Z,4.47
2023-05-11T03:56:37.541Z,4.47
2023-05-11T03:59:06.954Z,4.53
2023-05-11T04:01:34.980Z,4.63
2023-05-11T04:04:03.922Z,4.10
2023-05-11T04:06:31.634Z,4.87
2023-05-11T04:08:59.392Z,3.97
2023-05-11T04:11:27.506Z,3.70
2023-05-11T04:13:55.256Z,3.93
2023-05-11T04:16:24.416Z,3.67
2023-05-11T04:18:52.179Z,3.87
2023-05-11T04:21:20.115Z,3.90
2023-05-11T04:23:47.962Z,4.30
2023-05-11T04:26:15.963Z,4.30
2023-05-11T04:28:43.671Z,4.10
2023-05-11T04:31:11.497Z,4.53
2023-05-11T04:33:40.698Z,4.40
2023-05-11T04:36:08.734Z,4.20
2023-05-11T04:38:37.318Z,4.60
2023-05-11T04:41:05.674Z,4.80
2023-05-11T04:43:33.762Z,5.00
2023-05-11T04:46:02.820Z,4.50
2023-05-11T04:48:30.600Z,4.57
2023-05-11T04:50:59.776Z,4.87
2023-05-11T04:53:27.872Z,4.47
2023-05-11T04:55:55.595Z,4.53
2023-05-11T04:58:23.272Z,4.67
2023-05-11T05:00:51.291Z,4.27
2023-05-11T05:03:19.036Z,4.37
2023-05-11T05:05:46.758Z,4.47
2023-05-11T05:08:17.541Z,5.10
2023-05-11T05:10:45.280Z,4.70
2023-05-11T05:13:13.255Z,4.10
2023-05-11T05:15:41.133Z,3.77
2023-05-11T05:18:08.846Z,3.97
2023-05-11T05:20:36.653Z,4.30
2023-05-11T05:23:04.380Z,3.90
2023-05-11T05:25:33.460Z,4.77
2023-05-11T05:28:01.274Z,3.83
2023-05-11T05:30:29.140Z,4.93
2023-05-11T05:32:56.942Z,4.87
2023-05-11T05:35:24.800Z,4.97
2023-05-11T05:37:52.547Z,4.90
2023-05-11T05:40:20.758Z,5.20
2023-05-11T05:42:50.225Z,4.57
2023-05-11T05:45:17.957Z,4.13
2023-05-11T05:47:45.754Z,4.67
2023-05-11T05:50:13.488Z,4.30
2023-05-11T05:52:41.797Z,4.53
2023-05-11T05:55:10.048Z,4.27
2023-05-11T05:57:37.877Z,4.77
2023-05-11T06:00:10.260Z,4.10
2023-05-11T06:02:38.040Z,4.13
2023-05-11T06:05:06.478Z,4.20
2023-05-11T06:07:34.344Z,4.83
2023-05-11T06:10:02.276Z,4.80
2023-05-11T06:12:30.106Z,4.90
2023-05-11T06:14:57.873Z,4.13
2023-05-11T06:17:28.354Z,4.63
2023-05-11T06:19:56.739Z,4.67
2023-05-11T06:22:24.422Z,4.50
2023-05-11T06:24:52.609Z,5.83
2023-05-11T06:27:20.788Z,4.70
2023-05-11T06:29:48.501Z,5.67
2023-05-11T06:32:16.834Z,4.30
2023-05-11T06:34:45.888Z,5.70
2023-05-11T06:37:20.209Z,5.33
2023-05-11T06:39:48.106Z,4.27
2023-05-11T06:42:16.019Z,6.13
2023-05-11T06:44:43.802Z,4.60
2023-05-11T06:47:11.538Z,4.95
2023-05-11T06:49:39.339Z,6.10
2023-05-11T06:52:08.825Z,4.43
2023-05-11T06:54:36.724Z,4.63
2023-05-11T06:57:04.682Z,4.73
2023-05-11T06:59:32.484Z,5.00
2023-05-11T07:02:00.218Z,4.60
2023-05-11T07:04:29.743Z,4.37
2023-05-11T07:06:57.780Z,4.80
2023-05-11T07:09:26.795Z,5.17
2023-05-11T07:11:54.549Z,5.00
2023-05-11T07:14:22.338Z,5.07
2023-05-11T07:16:52.725Z,4.97
2023-05-11T07:19:20.724Z,4.57
2023-05-11T07:21:48.422Z,4.80
2023-05-11T07:24:16.123Z,4.80
2023-05-11T07:26:45.319Z,5.97
2023-05-11T07:29:13.029Z,5.50
2023-05-11T07:31:40.803Z,7.07
2023-05-11T07:34:08.608Z,7.10
2023-05-11T07:36:36.529Z,6.32
2023-05-11T07:39:04.400Z,5.93
2023-05-11T07:41:32.344Z,6.87
2023-05-11T07:44:02.728Z,5.18
2023-05-11T07:46:30.586Z,5.20
2023-05-11T07:49:11.372Z,4.53
2023-05-11T07:51:42.045Z,4.80
2023-05-11T07:54:09.885Z,5.27
2023-05-11T07:56:37.596Z,5.50
2023-05-11T07:59:06.742Z,5.83
2023-05-11T08:01:34.502Z,5.77
2023-05-11T08:04:02.711Z,5.43
2023-05-11T08:06:30.535Z,5.38
2023-05-11T08:08:58.261Z,5.73
2023-05-11T08:11:26.297Z,6.07
2023-05-11T08:13:54.025Z,5.85
2023-05-11T08:16:23.247Z,6.72
2023-05-11T08:18:51.004Z,5.80
2023-05-11T08:21:18.870Z,5.60
2023-05-11T08:23:46.630Z,5.65
2023-05-11T08:26:14.604Z,6.13
2023-05-11T08:28:42.475Z,6.23
2023-05-11T08:31:10.243Z,5.35
2023-05-11T08:33:39.489Z,6.00
2023-05-11T08:36:08.756Z,5.93
2023-05-11T08:38:36.981Z,5.75
2023-05-11T08:41:04.922Z,4.75
2023-05-11T08:43:35.279Z,5.75
2023-05-11T08:46:05.265Z,5.55
2023-05-11T08:48:33.323Z,5.50
2023-05-11T08:51:03.469Z,5.88
2023-05-11T08:53:31.620Z,4.97
2023-05-11T08:56:01.088Z,5.35
2023-05-11T08:58:30.506Z,5.05
2023-05-11T09:00:59.133Z,5.32
2023-05-11T09:03:29.537Z,4.90
2023-05-11T09:05:58.493Z,3.83
2023-05-11T09:08:31.507Z,4.25
2023-05-11T09:11:00.885Z,5.13
2023-05-11T09:13:28.959Z,4.00
2023-05-11T09:15:56.993Z,3.80
2023-05-11T09:18:24.746Z,4.57
2023-05-11T09:20:52.704Z,4.33
2023-05-11T09:23:25.035Z,4.50
2023-05-11T09:25:54.181Z,4.18
2023-05-11T09:28:25.529Z,4.72
2023-05-11T09:30:54.332Z,4.03
2023-05-11T09:33:26.668Z,4.13
2023-05-11T09:35:54.848Z,3.92
2023-05-11T09:38:26.315Z,4.07
2023-05-11T09:40:57.061Z,4.20
2023-05-11T09:43:26.756Z,4.40
2023-05-11T09:45:56.113Z,3.27
2023-05-11T09:48:29.489Z,4.07
2023-05-11T09:51:03.575Z,4.07
2023-05-11T09:53:41.064Z,4.60
2023-05-11T09:56:11.236Z,3.33
2023-05-11T09:58:54.037Z,3.53
2023-05-11T10:01:31.316Z,4.30
2023-05-11T10:04:13.964Z,3.57
2023-05-11T10:06:50.293Z,3.43
2023-05-11T10:09:19.395Z,3.70
2023-05-11T10:11:48.674Z,3.53
2023-05-11T10:14:17.192Z,3.53
2023-05-11T10:16:45.782Z,3.83
2023-05-11T10:19:14.725Z,3.70
2023-05-11T10:21:42.671Z,3.30
2023-05-11T10:24:11.678Z,3.60
2023-05-11T10:26:39.924Z,3.50
2023-05-11T10:29:10.373Z,3.30
2023-05-11T10:31:38.599Z,3.73
2023-05-11T10:34:07.626Z,3.57
2023-05-11T10:36:35.791Z,3.03
2023-05-11T10:39:03.522Z,3.23
2023-05-11T10:41:47.052Z,2.97
2023-05-11T10:44:46.509Z,2.80
2023-05-11T10:47:33.663Z,2.63
2023-05-11T10:50:21.061Z,2.53
2023-05-11T10:53:21.418Z,2.83
2023-05-11T10:56:06.151Z,2.25
2023-05-11T10:58:50.055Z,2.53
2023-05-11T11:01:37.758Z,2.55
2023-05-11T11:04:07.316Z,2.37
2023-05-11T11:06:36.583Z,2.93
2023-05-11T11:09:06.486Z,2.30
2023-05-11T11:11:36.953Z,2.70
2023-05-11T11:14:06.031Z,1.98
2023-05-11T11:16:35.294Z,2.58
2023-05-11T11:19:37.989Z,1.90
2023-05-11T11:22:06.610Z,2.40
2023-05-11T11:24:47.883Z,3.10
2023-05-11T11:27:16.219Z,2.67
2023-05-11T11:30:18.636Z,2.85
2023-05-11T11:32:48.441Z,2.70
2023-05-11T11:35:48.623Z,2.65
2023-05-11T11:38:18.213Z,2.95
2023-05-11T11:40:51.430Z,2.80
2023-05-11T11:43:22.223Z,3.03
2023-05-11T11:45:54.488Z,3.78
2023-05-11T11:48:24.943Z,2.90
2023-05-11T11:51:04.459Z,3.08
2023-05-11T11:54:00.827Z,2.92
2023-05-11T11:56:45.874Z,3.00
2023-05-11T11:59:15.499Z,2.58
2023-05-11T12:01:44.916Z,3.63
2023-05-11T12:04:39.266Z,3.28
2023-05-11T12:07:10.268Z,3.42
2023-05-11T12:09:40.859Z,3.47
2023-05-11T12:12:10.035Z,3.35
2023-05-11T12:14:38.064Z,2.72
2023-05-11T12:17:13.315Z,3.58
2023-05-11T12:19:43.269Z,4.10
2023-05-11T12:22:14.226Z,3.97
2023-05-11T12:24:42.186Z,3.33
2023-05-11T12:27:10.343Z,3.78
2023-05-11T12:29:38.822Z,3.58
2023-05-11T12:32:12.374Z,3.85
2023-05-11T12:34:40.251Z,4.07
2023-05-11T12:37:09.955Z,3.75
2023-05-11T12:39:39.456Z,3.67
2023-05-11T12:42:07.620Z,3.25
2023-05-11T12:44:35.394Z,2.97
2023-05-11T12:47:03.315Z,4.03
2023-05-11T12:49:31.091Z,3.95
2023-05-11T12:52:07.803Z,2.95
2023-05-11T12:54:38.762Z,2.85
2023-05-11T12:57:07.721Z,3.00
2023-05-11T12:59:37.309Z,3.30
2023-05-11T13:02:14.835Z,3.80
2023-05-11T13:04:43.636Z,3.40
2023-05-11T13:07:12.410Z,3.45
2023-05-11T13:09:42.527Z,3.47
2023-05-11T13:12:12.385Z,3.05
2023-05-11T13:14:40.640Z,3.00
2023-05-11T13:17:08.517Z,3.15
2023-05-11T13:19:37.511Z,3.13
2023-05-11T13:22:06.098Z,4.00
2023-05-11T13:24:34.710Z,2.63
2023-05-11T13:27:03.926Z,3.22
2023-05-11T13:29:31.747Z,3.90
2023-05-11T13:31:59.884Z,3.75
2023-05-11T13:34:27.604Z,3.60
2023-05-11T13:36:55.384Z,3.15
2023-05-11T13:39:23.069Z,3.08
2023-05-11T13:41:50.772Z,3.08
2023-05-11T13:44:19.835Z,3.15
2023-05-11T13:46:47.710Z,3.08
2023-05-11T13:49:15.733Z,2.97
2023-05-11T13:51:43.525Z,2.78
2023-05-11T13:54:13.050Z,2.75
2023-05-11T13:56:40.805Z,3.25
2023-05-11T13:59:08.517Z,3.00
2023-05-11T14:01:37.726Z,2.97
2023-05-11T14:04:06.187Z,3.28
2023-05-11T14:06:36.206Z,2.90
2023-05-11T14:09:03.962Z,3.28
2023-05-11T14:11:33.894Z,3.20
2023-05-11T14:14:01.742Z,2.85
2023-05-11T14:16:29.651Z,3.55
2023-05-11T14:18:58.910Z,3.25
2023-05-11T14:21:26.667Z,3.30
2023-05-11T14:24:09.814Z,3.63
2023-05-11T14:26:39.106Z,3.50
2023-05-11T14:29:06.969Z,2.90
2023-05-11T14:31:36.328Z,3.92
2023-05-11T14:34:05.694Z,2.97
2023-05-11T14:36:33.570Z,3.00
2023-05-11T14:39:07.835Z,3.15
2023-05-11T14:41:38.535Z,3.15
2023-05-11T14:44:06.488Z,3.22
2023-05-11T14:46:36.345Z,3.85
2023-05-11T14:49:05.706Z,2.78
2023-05-11T14:51:33.416Z,2.97
2023-05-11T14:54:01.147Z,3.05
2023-05-11T14:56:29.147Z,3.05
2023-05-11T14:58:57.151Z,2.95
2023-05-11T15:01:24.843Z,3.50
2023-05-11T15:03:52.697Z,3.42
2023-05-11T15:06:22.558Z,3.60
2023-05-11T15:08:51.797Z,3.55
2023-05-11T15:11:19.796Z,3.63
2023-05-11T15:13:48.546Z,3.42
2023-05-11T15:16:16.342Z,3.20
2023-05-11T15:18:44.096Z,3.55
2023-05-11T15:21:11.919Z,2.65
2023-05-11T15:23:41.048Z,3.25
2023-05-11T15:26:08.792Z,3.05
2023-05-11T15:28:39.049Z,4.10
2023-05-11T15:31:06.850Z,3.40
2023-05-11T15:33:34.559Z,3.38
2023-05-11T15:36:02.438Z,3.05
2023-05-11T15:38:30.618Z,3.90
2023-05-11T15:41:00.327Z,3.83
2023-05-11T15:43:28.095Z,3.50
2023-05-11T15:45:55.852Z,3.20
2023-05-11T15:48:23.584Z,3.72
2023-05-11T15:50:51.349Z,3.58
2023-05-11T15:53:20.175Z,4.22
2023-05-11T15:55:55.735Z,3.40
2023-05-11T15:58:26.717Z,3.13
2023-05-11T16:00:55.361Z,3.90
2023-05-11T16:03:24.684Z,3.63
2023-05-11T16:05:52.439Z,3.58
2023-05-11T16:08:20.282Z,4.53
2023-05-11T16:10:48.325Z,4.28
2023-05-11T16:13:16.065Z,3.63
2023-05-11T16:15:45.199Z,3.80
2023-05-11T16:18:14.012Z,3.92
2023-05-11T16:20:41.828Z,3.83
2023-05-11T16:23:10.820Z,3.53
2023-05-11T16:25:38.663Z,4.05
2023-05-11T16:28:13.939Z,3.83
2023-05-11T16:30:42.171Z,3.63
2023-05-11T16:33:11.515Z,3.78
2023-05-11T16:35:39.741Z,3.30
2023-05-11T16:38:10.564Z,4.47
2023-05-11T16:40:38.301Z,3.88
2023-05-11T16:43:06.062Z,3.70
2023-05-11T16:45:34.293Z,4.07
2023-05-11T16:48:03.504Z,3.10
2023-05-11T16:50:33.626Z,3.95
2023-05-11T16:53:02.518Z,3.40
2023-05-11T16:55:31.005Z,3.53
2023-05-11T16:57:58.958Z,3.95
2023-05-11T17:00:28.211Z,3.28
2023-05-11T17:02:56.601Z,3.47
2023-05-11T17:05:24.767Z,3.60
2023-05-11T17:07:54.411Z,4.18
2023-05-11T17:10:22.436Z,3.78
2023-05-11T17:12:50.708Z,3.45
2023-05-11T17:15:18.845Z,3.50
2023-05-11T17:17:46.845Z,3.90
2023-05-11T17:20:15.893Z,5.25
2023-05-11T17:22:44.461Z,4.55
2023-05-11T17:25:13.984Z,5.05
2023-05-11T17:27:41.922Z,4.25
2023-05-11T17:30:11.559Z,4.97
2023-05-11T17:32:39.797Z,4.43
2023-05-11T17:35:09.287Z,5.32
2023-05-11T17:37:37.331Z,5.80
2023-05-11T17:40:06.162Z,5.88
2023-05-11T17:42:38.812Z,6.10
2023-05-11T17:45:07.726Z,5.20
2023-05-11T17:47:35.562Z,5.05
2023-05-11T17:50:05.964Z,5.28
2023-05-11T17:52:37.381Z,6.00
2023-05-11T17:55:06.566Z,6.22
2023-05-11T17:57:35.679Z,5.70
2023-05-11T18:00:04.884Z,4.88
2023-05-11T18:02:33.313Z,5.95
2023-05-11T18:05:02.215Z,5.15
2023-05-11T18:07:32.089Z,5.28
2023-05-11T18:10:00.330Z,5.47
2023-05-11T18:12:30.227Z,5.55
2023-05-11T18:14:59.891Z,5.22
2023-05-11T18:17:28.813Z,5.30
2023-05-11T18:19:56.753Z,5.45
2023-05-11T18:22:24.974Z,5.68
2023-05-11T18:24:53.580Z,5.10
2023-05-11T18:27:21.280Z,5.75
2023-05-11T18:29:49.234Z,5.35
2023-05-11T18:32:21.444Z,5.38
2023-05-11T18:34:49.141Z,6.45
2023-05-11T18:37:17.483Z,6.22
2023-05-11T18:39:46.138Z,5.15
2023-05-11T18:42:14.003Z,6.05
2023-05-11T18:44:45.100Z,5.63
2023-05-11T18:47:12.957Z,5.78
2023-05-11T18:49:42.017Z,7.07
2023-05-11T18:52:09.793Z,6.72
2023-05-11T18:54:37.969Z,9.32
2023-05-11T18:57:11.563Z,7.05
2023-05-11T18:59:40.452Z,6.85
2023-05-11T19:02:16.165Z,7.28
2023-05-11T19:04:45.388Z,7.50
2023-05-11T19:07:13.459Z,6.63
2023-05-11T19:09:42.492Z,6.03
2023-05-11T19:12:10.667Z,6.95
2023-05-11T19:14:41.084Z,7.63
2023-05-11T19:17:09.171Z,6.43
2023-05-11T19:19:37.335Z,7.10
2023-05-11T19:22:09.690Z,6.82
2023-05-11T19:24:37.447Z,6.75
2023-05-11T19:27:08.064Z,6.85
2023-05-11T19:29:36.347Z,7.18
2023-05-11T19:32:04.872Z,6.40
2023-05-11T19:34:34.672Z,6.82
2023-05-11T19:37:02.435Z,6.80
2023-05-11T19:39:33.625Z,6.43
2023-05-11T19:42:01.421Z,6.28
2023-05-11T19:44:33.094Z,6.53
2023-05-11T19:47:01.039Z,6.25
2023-05-11T19:49:29.303Z,6.28
2023-05-11T19:51:57.891Z,6.10
2023-05-11T19:54:28.190Z,5.93
2023-05-11T19:56:59.938Z,6.13
2023-05-11T19:59:33.002Z,4.90
2023-05-11T20:02:01.436Z,6.00
2023-05-11T20:04:29.718Z,4.90
2023-05-11T20:06:58.523Z,5.00
2023-05-11T20:09:26.612Z,5.70
2023-05-11T20:11:54.615Z,4.60
2023-05-11T20:14:24.155Z,5.00
2023-05-11T20:16:51.917Z,5.07
2023-05-11T20:19:20.021Z,4.50
2023-05-11T20:21:50.368Z,4.83
2023-05-11T20:24:19.938Z,4.18
2023-05-11T20:26:49.485Z,5.18
2023-05-11T20:29:17.462Z,4.45
2023-05-11T20:31:47.149Z,4.60
2023-05-11T20:34:14.939Z,5.07
2023-05-11T20:36:42.726Z,4.25
2023-05-11T20:39:10.492Z,4.45
2023-05-11T20:41:38.532Z,4.28
2023-05-11T20:44:07.861Z,4.28
2023-05-11T20:46:35.564Z,4.07
2023-05-11T20:49:06.066Z,4.73
2023-05-11T20:51:34.393Z,3.58
2023-05-11T20:54:02.135Z,4.13
2023-05-11T20:56:29.906Z,4.00
2023-05-11T20:58:57.623Z,5.65
2023-05-11T21:01:25.359Z,4.93
2023-05-11T21:03:53.193Z,5.57
2023-05-11T21:06:22.200Z,6.03
2023-05-11T21:08:50.876Z,6.03
2023-05-11T21:11:18.978Z,5.72
2023-05-11T21:13:46.651Z,5.40
2023-05-11T21:16:14.396Z,4.53
2023-05-11T21:18:43.422Z,4.78
2023-05-11T21:21:11.218Z,5.40
2023-05-11T21:23:40.291Z,5.40
2023-05-11T21:26:08.161Z,5.40
2023-05-11T21:28:36.625Z,4.57
2023-05-11T21:31:04.488Z,4.28
2023-05-11T21:33:32.248Z,5.23
2023-05-11T21:36:00.050Z,5.00
2023-05-11T21:38:27.956Z,4.67
2023-05-11T21:40:57.340Z,5.47
2023-05-11T21:43:25.193Z,6.15
2023-05-11T21:45:52.952Z,4.73
2023-05-11T21:48:21.706Z,5.30
2023-05-11T21:50:53.141Z,5.33
2023-05-11T21:53:21.129Z,5.03
2023-05-11T21:55:48.978Z,5.27
2023-05-11T21:58:18.101Z,5.03
2023-05-11T22:00:46.396Z,5.03
2023-05-11T22:03:14.204Z,5.17
2023-05-11T22:05:42.322Z,4.67
2023-05-11T22:08:14.939Z,4.80
2023-05-11T22:10:43.781Z,4.60
2023-05-11T22:13:11.882Z,5.43
2023-05-11T22:15:41.075Z,5.57
2023-05-11T22:18:09.480Z,5.10
2023-05-11T22:20:37.395Z,4.87
2023-05-11T22:23:05.167Z,5.37
2023-05-11T22:25:33.115Z,5.13
2023-05-11T22:28:01.753Z,5.20
2023-05-11T22:30:29.448Z,4.67
2023-05-11T22:32:58.625Z,4.77
2023-05-11T22:35:26.733Z,4.70
2023-05-11T22:37:54.511Z,5.47
2023-05-11T22:40:22.287Z,5.10
2023-05-11T22:42:50.229Z,4.03
2023-05-11T22:45:18.569Z,4.50
2023-05-11T22:47:49.482Z,5.00
2023-05-11T22:50:20.066Z,4.10
2023-05-11T22:52:48.554Z,4.70
2023-05-11T22:55:16.353Z,5.37
2023-05-11T22:57:44.112Z,4.97
2023-05-11T23:00:13.418Z,4.87
2023-05-11T23:02:41.254Z,4.70
2023-05-11T23:05:09.604Z,5.07
2023-05-11T23:07:39.178Z,4.23
2023-05-11T23:10:07.765Z,5.10
2023-05-11T23:12:35.524Z,4.97
2023-05-11T23:15:03.909Z,4.67
2023-05-11T23:17:31.731Z,4.43
2023-05-11T23:19:59.580Z,4.97
2023-05-11T23:22:27.342Z,4.20
2023-05-11T23:24:57.742Z,4.90
2023-05-11T23:27:25.554Z,5.00
2023-05-11T23:29:53.276Z,5.37
2023-05-11T23:32:21.177Z,4.03
2023-05-11T23:34:48.892Z,4.37
2023-05-11T23:37:16.824Z,3.83
2023-05-11T23:39:44.582Z,4.37
2023-05-11T23:42:14.410Z,4.10
2023-05-11T23:44:42.382Z,5.00
2023-05-11T23:47:10.537Z,4.20
2023-05-11T23:49:38.442Z,4.33
2023-05-11T23:52:07.164Z,4.63
2023-05-11T23:54:35.027Z,4.00
2023-05-11T23:57:02.826Z,4.50
2023-05-11T23:59:32.009Z,3.60
